createdAt,value
2023-03-06T00:01:29.015Z,52.62
2023-03-06T00:03:56.029Z,52.27
2023-03-06T00:06:24.435Z,52.21
2023-03-06T00:08:51.283Z,52.16
2023-03-06T00:11:18.205Z,51.58
2023-03-06T00:13:46.014Z,51.59
2023-03-06T00:16:12.934Z,50.86
2023-03-06T00:18:39.851Z,50.85
2023-03-06T00:21:08.712Z,51.02
2023-03-06T00:23:36.522Z,51.16
2023-03-06T00:26:06.492Z,50.86
2023-03-06T00:28:33.641Z,51.07
2023-03-06T00:31:03.293Z,50.72
2023-03-06T00:33:30.732Z,50.77
2023-03-06T00:35:58.884Z,51.00
2023-03-06T00:38:28.703Z,50.78
2023-03-06T00:40:56.571Z,50.47
2023-03-06T00:43:23.527Z,50.75
2023-03-06T00:45:51.586Z,50.72
2023-03-06T00:48:20.384Z,51.16
2023-03-06T00:50:47.235Z,50.66
2023-03-06T00:53:15.072Z,51.25
2023-03-06T00:55:45.629Z,51.50
2023-03-06T00:58:13.657Z,51.48
2023-03-06T01:00:40.572Z,51.23
2023-03-06T01:03:08.506Z,52.86
2023-03-06T01:05:37.341Z,53.58
2023-03-06T01:08:05.561Z,53.90
2023-03-06T01:10:33.732Z,53.69
2023-03-06T01:13:00.579Z,53.45
2023-03-06T01:15:27.576Z,53.64
2023-03-06T01:17:54.694Z,54.15
2023-03-06T01:20:22.884Z,53.67
2023-03-06T01:22:51.499Z,55.59
2023-03-06T01:25:19.404Z,55.94
2023-03-06T01:27:48.289Z,55.27
2023-03-06T01:30:17.141Z,54.72
2023-03-06T01:32:45.038Z,54.47
2023-03-06T01:35:13.379Z,53.81
2023-03-06T01:37:41.608Z,54.63
2023-03-06T01:40:11.874Z,54.67
2023-03-06T01:42:39.762Z,54.77
2023-03-06T01:45:08.152Z,54.44
2023-03-06T01:47:36.887Z,54.19
2023-03-06T01:50:06.570Z,55.07
2023-03-06T01:52:38.976Z,54.71
2023-03-06T01:55:12.277Z,54.07
2023-03-06T01:57:45.413Z,55.82
2023-03-06T02:00:16.574Z,55.91
2023-03-06T02:02:50.256Z,55.62
2023-03-06T02:05:17.380Z,55.48
2023-03-06T02:07:46.283Z,54.74
2023-03-06T02:10:14.276Z,54.24
2023-03-06T02:12:46.470Z,53.80
2023-03-06T02:15:17.943Z,53.16
2023-03-06T02:17:47.300Z,52.52
2023-03-06T02:20:25.203Z,52.50
2023-03-06T02:23:29.664Z,52.31
2023-03-06T02:25:58.309Z,51.79
2023-03-06T02:28:26.347Z,51.80
2023-03-06T02:30:56.461Z,51.75
2023-03-06T02:33:26.496Z,51.60
2023-03-06T02:36:00.481Z,51.49
2023-03-06T02:38:39.544Z,51.49
2023-03-06T02:41:09.181Z,51.85
2023-03-06T02:43:40.080Z,52.13
2023-03-06T02:46:08.135Z,52.34
2023-03-06T02:48:36.074Z,52.30
2023-03-06T02:51:03.218Z,52.33
2023-03-06T02:53:30.130Z,52.22
2023-03-06T02:55:57.230Z,52.48
2023-03-06T02:58:26.010Z,52.50
2023-03-06T03:00:52.953Z,52.52
2023-03-06T03:03:19.895Z,52.82
2023-03-06T03:05:47.733Z,52.97
2023-03-06T03:08:14.613Z,52.80
2023-03-06T03:10:42.680Z,53.03
2023-03-06T03:13:09.659Z,53.27
2023-03-06T03:15:37.547Z,53.25
2023-03-06T03:18:05.400Z,53.10
2023-03-06T03:20:33.519Z,53.15
2023-03-06T03:23:00.500Z,52.93
2023-03-06T03:25:28.117Z,53.59
2023-03-06T03:27:56.017Z,53.48
2023-03-06T03:30:23.808Z,53.48
2023-03-06T03:32:51.012Z,53.60
2023-03-06T03:35:18.947Z,53.46
2023-03-06T03:37:45.858Z,53.58
2023-03-06T03:40:13.502Z,53.65
2023-03-06T03:42:40.417Z,53.78
2023-03-06T03:45:08.884Z,54.40
2023-03-06T03:47:35.686Z,54.11
2023-03-06T03:50:02.660Z,54.32
2023-03-06T03:52:29.616Z,55.27
2023-03-06T03:54:57.570Z,55.07
2023-03-06T03:57:25.382Z,55.43
2023-03-06T03:59:53.266Z,55.70
2023-03-06T04:02:21.971Z,55.35
2023-03-06T04:04:50.225Z,55.43
2023-03-06T04:07:18.836Z,55.19
2023-03-06T04:09:48.156Z,55.88
2023-03-06T04:12:18.469Z,55.48
2023-03-06T04:14:46.355Z,56.04
2023-03-06T04:17:18.014Z,55.83
2023-03-06T04:19:47.780Z,55.64
2023-03-06T04:22:15.563Z,55.90
2023-03-06T04:24:42.423Z,55.77
2023-03-06T04:27:10.352Z,55.86
2023-03-06T04:29:40.080Z,55.58
2023-03-06T04:32:12.685Z,56.03
2023-03-06T04:34:39.743Z,56.35
2023-03-06T04:37:13.033Z,56.06
2023-03-06T04:39:39.986Z,55.53
2023-03-06T04:42:07.940Z,55.98
2023-03-06T04:44:36.018Z,56.06
2023-03-06T04:47:03.900Z,55.55
2023-03-06T04:49:30.866Z,55.55
2023-03-06T04:51:58.792Z,56.06
2023-03-06T04:54:26.816Z,55.86
2023-03-06T04:56:54.602Z,55.61
2023-03-06T04:59:22.439Z,56.55
2023-03-06T05:01:50.377Z,55.47
2023-03-06T05:04:18.252Z,55.65
2023-03-06T05:06:46.100Z,55.94
2023-03-06T05:09:13.971Z,56.10
2023-03-06T05:11:41.829Z,56.52
2023-03-06T05:14:09.721Z,56.22
2023-03-06T05:16:39.469Z,56.12
2023-03-06T05:19:09.346Z,55.80
2023-03-06T05:21:36.248Z,55.61
2023-03-06T05:24:03.368Z,56.23
2023-03-06T05:26:31.378Z,56.08
2023-03-06T05:28:59.121Z,56.46
2023-03-06T05:31:27.021Z,56.90
2023-03-06T05:33:53.925Z,56.77
2023-03-06T05:36:21.081Z,57.26
2023-03-06T05:38:48.020Z,56.79
2023-03-06T05:41:15.795Z,56.98
2023-03-06T05:43:42.876Z,57.54
2023-03-06T05:46:12.430Z,57.32
2023-03-06T05:48:40.449Z,57.23
2023-03-06T05:51:08.280Z,57.11
2023-03-06T05:53:36.161Z,56.60
2023-03-06T05:56:08.952Z,57.00
2023-03-06T05:58:37.842Z,57.40
2023-03-06T06:01:10.861Z,57.96
2023-03-06T06:03:39.234Z,58.65
2023-03-06T06:06:12.553Z,58.42
2023-03-06T06:08:41.486Z,59.63
2023-03-06T06:11:10.676Z,60.09
2023-03-06T06:13:38.741Z,60.11
2023-03-06T06:16:16.861Z,61.86
2023-03-06T06:18:43.979Z,61.77
2023-03-06T06:21:14.761Z,61.93
2023-03-06T06:23:44.352Z,62.35
2023-03-06T06:26:11.397Z,61.95
2023-03-06T06:28:39.259Z,62.22
2023-03-06T06:31:12.615Z,61.89
2023-03-06T06:33:41.171Z,61.99
2023-03-06T06:36:20.382Z,63.00
2023-03-06T06:38:49.650Z,63.32
2023-03-06T06:41:42.355Z,62.69
2023-03-06T06:44:08.553Z,62.36
2023-03-06T06:49:26.400Z,62.04
2023-03-06T06:51:54.945Z,61.63
2023-03-06T06:54:22.570Z,63.21
2023-03-06T06:56:50.416Z,62.99
2023-03-06T06:59:18.325Z,63.32
2023-03-06T07:01:45.364Z,63.70
2023-03-06T07:04:15.991Z,63.30
2023-03-06T07:06:43.280Z,62.87
2023-03-06T07:09:12.215Z,62.02
2023-03-06T07:11:40.798Z,62.82
2023-03-06T07:14:09.104Z,62.52
2023-03-06T07:16:38.898Z,62.70
2023-03-06T07:19:07.262Z,62.32
2023-03-06T07:21:34.524Z,62.22
2023-03-06T07:24:01.676Z,62.31
2023-03-06T07:26:29.039Z,62.36
2023-03-06T07:28:56.092Z,61.60
2023-03-06T07:31:27.132Z,61.20
2023-03-06T07:33:54.964Z,60.93
2023-03-06T07:36:24.294Z,60.72
2023-03-06T07:38:51.487Z,60.39
2023-03-06T07:41:22.191Z,59.98
2023-03-06T07:43:51.064Z,59.70
2023-03-06T07:46:19.575Z,59.23
2023-03-06T07:48:46.547Z,59.20
2023-03-06T07:51:16.882Z,59.61
2023-03-06T07:53:44.019Z,59.54
2023-03-06T07:56:12.585Z,59.93
2023-03-06T07:58:42.431Z,61.17
2023-03-06T08:01:13.648Z,61.20
2023-03-06T08:03:42.194Z,61.73
2023-03-06T08:06:11.729Z,62.05
2023-03-06T08:08:41.762Z,62.41
2023-03-06T08:11:10.218Z,62.62
2023-03-06T08:13:37.571Z,62.19
2023-03-06T08:16:05.836Z,61.68
2023-03-06T08:18:35.031Z,60.88
2023-03-06T08:21:07.131Z,60.58
2023-03-06T08:23:35.247Z,60.37
2023-03-06T08:26:12.799Z,60.18
2023-03-06T08:28:40.884Z,60.39
2023-03-06T08:31:13.603Z,59.80
2023-03-06T08:33:41.643Z,60.05
2023-03-06T08:36:08.803Z,59.60
2023-03-06T08:38:35.991Z,59.99
2023-03-06T08:41:03.372Z,59.69
2023-03-06T08:43:30.594Z,59.43
2023-03-06T08:45:58.700Z,59.33
2023-03-06T08:48:26.532Z,59.00
2023-03-06T08:50:55.723Z,59.29
2023-03-06T08:53:40.289Z,58.27
2023-03-06T08:56:25.828Z,58.29
2023-03-06T08:58:55.485Z,57.07
2023-03-06T09:01:29.016Z,56.61
2023-03-06T09:03:58.289Z,56.80
2023-03-06T09:06:27.918Z,56.59
2023-03-06T09:08:55.559Z,58.15
2023-03-06T09:11:25.453Z,57.20
2023-03-06T09:13:55.594Z,56.37
2023-03-06T09:16:23.918Z,56.07
2023-03-06T09:18:56.099Z,56.25
2023-03-06T09:21:26.450Z,55.80
2023-03-06T09:23:54.297Z,54.80
2023-03-06T09:26:21.214Z,54.62
2023-03-06T09:28:48.133Z,55.22
2023-03-06T09:31:19.159Z,54.57
2023-03-06T09:33:47.126Z,55.45
2023-03-06T09:36:18.576Z,55.47
2023-03-06T09:38:48.252Z,53.63
2023-03-06T09:41:22.964Z,51.87
2023-03-06T09:43:55.180Z,51.82
2023-03-06T09:46:43.226Z,51.59
2023-03-06T09:49:48.406Z,50.91
2023-03-06T09:52:47.944Z,50.39
2023-03-06T09:55:27.252Z,49.81
2023-03-06T09:58:02.711Z,47.75
2023-03-06T10:00:50.906Z,46.97
2023-03-06T10:03:39.514Z,47.95
2023-03-06T10:06:31.094Z,48.01
2023-03-06T10:09:09.712Z,49.21
2023-03-06T10:11:56.306Z,48.79
2023-03-06T10:14:37.001Z,46.66
2023-03-06T10:17:05.592Z,46.23
2023-03-06T10:19:42.384Z,45.43
2023-03-06T10:22:33.259Z,45.14
2023-03-06T10:25:13.914Z,45.10
2023-03-06T10:27:47.489Z,44.26
2023-03-06T10:30:34.034Z,44.65
2023-03-06T10:33:15.721Z,44.26
2023-03-06T10:35:52.343Z,44.24
2023-03-06T10:38:33.087Z,44.91
2023-03-06T10:41:07.639Z,45.26
2023-03-06T10:43:37.713Z,44.63
2023-03-06T10:46:05.536Z,44.26
2023-03-06T10:48:36.235Z,45.00
2023-03-06T10:51:19.485Z,43.56
2023-03-06T10:53:49.109Z,42.78
2023-03-06T10:56:27.682Z,44.15
2023-03-06T10:59:19.739Z,44.23
2023-03-06T11:01:50.273Z,43.69
2023-03-06T11:04:25.838Z,43.20
2023-03-06T11:07:13.002Z,42.79
2023-03-06T11:09:43.241Z,43.39
2023-03-06T11:12:32.874Z,42.58
2023-03-06T11:15:06.922Z,41.42
2023-03-06T11:17:37.630Z,42.72
2023-03-06T11:20:18.378Z,42.76
2023-03-06T11:22:51.497Z,42.37
2023-03-06T11:25:22.575Z,41.79
2023-03-06T11:28:04.665Z,42.17
2023-03-06T11:30:41.993Z,40.52
2023-03-06T11:33:32.980Z,41.26
2023-03-06T11:36:23.247Z,41.06
2023-03-06T11:38:54.065Z,40.48
2023-03-06T11:41:44.484Z,40.95
2023-03-06T11:44:25.154Z,40.48
2023-03-06T11:47:08.623Z,40.34
2023-03-06T11:49:44.426Z,41.14
2023-03-06T11:52:38.053Z,42.05
2023-03-06T11:55:09.042Z,41.55
2023-03-06T11:57:52.887Z,42.70
2023-03-06T12:00:33.655Z,42.91
2023-03-06T12:03:13.008Z,42.54
2023-03-06T12:05:53.293Z,42.26
2023-03-06T12:08:42.755Z,42.59
2023-03-06T12:11:22.443Z,41.17
2023-03-06T12:14:17.865Z,40.64
2023-03-06T12:17:04.089Z,41.14
2023-03-06T12:19:44.517Z,42.33
2023-03-06T12:22:22.119Z,41.96
2023-03-06T12:25:16.990Z,41.91
2023-03-06T12:27:54.557Z,41.94
2023-03-06T12:30:28.232Z,42.40
2023-03-06T12:33:18.482Z,41.90
2023-03-06T12:36:02.516Z,41.99
2023-03-06T12:38:58.935Z,42.40
2023-03-06T12:41:57.805Z,42.15
2023-03-06T12:44:30.441Z,41.34
2023-03-06T12:47:03.450Z,42.12
2023-03-06T12:49:38.851Z,42.28
2023-03-06T12:52:12.472Z,41.90
2023-03-06T12:54:41.982Z,40.83
2023-03-06T12:57:15.048Z,39.96
2023-03-06T12:59:48.146Z,41.11
2023-03-06T13:02:41.504Z,40.39
2023-03-06T13:05:28.446Z,39.95
2023-03-06T13:08:15.547Z,40.46
2023-03-06T13:10:48.198Z,41.96
2023-03-06T13:13:31.575Z,43.20
2023-03-06T13:16:24.691Z,42.88
2023-03-06T13:19:11.648Z,43.70
2023-03-06T13:21:41.468Z,45.03
2023-03-06T13:24:34.451Z,46.62
2023-03-06T13:27:11.181Z,47.22
2023-03-06T13:29:38.059Z,47.50
2023-03-06T13:32:18.433Z,47.95
2023-03-06T13:34:49.239Z,48.71
2023-03-06T13:37:25.046Z,50.04
2023-03-06T13:39:59.518Z,50.79
2023-03-06T13:42:43.146Z,50.73
2023-03-06T13:45:38.212Z,51.17
2023-03-06T13:48:37.481Z,51.00
2023-03-06T13:51:24.745Z,50.92
2023-03-06T13:53:51.699Z,50.90
2023-03-06T13:56:40.508Z,52.83
2023-03-06T13:59:38.642Z,54.71
2023-03-06T14:02:05.921Z,57.03
2023-03-06T14:05:05.191Z,59.01
2023-03-06T14:07:35.911Z,56.59
2023-03-06T14:10:23.879Z,58.29
2023-03-06T14:12:50.661Z,58.54
2023-03-06T14:15:23.162Z,58.46
2023-03-06T14:18:00.915Z,58.20
2023-03-06T14:20:40.383Z,59.53
2023-03-06T14:23:25.810Z,58.43
2023-03-06T14:26:23.384Z,57.93
2023-03-06T14:28:53.157Z,57.67
2023-03-06T14:31:25.741Z,56.25
2023-03-06T14:34:02.383Z,55.57
2023-03-06T14:36:44.058Z,55.39
2023-03-06T14:39:24.096Z,53.58
2023-03-06T14:41:57.051Z,51.97
2023-03-06T14:44:26.683Z,52.60
2023-03-06T14:47:11.170Z,52.05
2023-03-06T14:49:38.936Z,51.83
2023-03-06T14:52:18.914Z,51.46
2023-03-06T14:54:48.126Z,51.38
2023-03-06T14:57:21.175Z,51.17
2023-03-06T14:59:58.735Z,49.94
2023-03-06T15:02:33.123Z,49.36
2023-03-06T15:05:07.098Z,49.34
2023-03-06T15:07:35.421Z,49.22
2023-03-06T15:12:53.160Z,50.50
2023-03-06T15:15:30.485Z,53.67
2023-03-06T15:17:59.141Z,54.36
2023-03-06T15:20:42.816Z,55.54
2023-03-06T15:23:24.758Z,57.18
2023-03-06T15:26:02.270Z,58.88
2023-03-06T15:28:40.030Z,57.95
2023-03-06T15:31:18.765Z,59.13
2023-03-06T15:34:04.720Z,57.96
2023-03-06T15:36:35.156Z,57.39
2023-03-06T15:39:02.482Z,57.50
2023-03-06T15:41:39.184Z,57.03
2023-03-06T15:44:12.957Z,56.32
2023-03-06T15:46:41.576Z,57.04
2023-03-06T15:49:17.422Z,56.36
2023-03-06T15:51:45.298Z,55.49
2023-03-06T15:54:13.822Z,55.03
2023-03-06T15:56:43.364Z,55.15
2023-03-06T15:59:22.371Z,54.47
2023-03-06T16:01:51.978Z,54.43
2023-03-06T16:04:21.133Z,53.37
2023-03-06T16:06:48.906Z,53.16
2023-03-06T16:09:16.749Z,54.56
2023-03-06T16:11:45.666Z,54.99
2023-03-06T16:14:21.483Z,55.77
2023-03-06T16:16:51.431Z,54.72
2023-03-06T16:19:26.515Z,54.81
2023-03-06T16:21:56.657Z,54.02
2023-03-06T16:24:27.096Z,53.44
2023-03-06T16:26:56.234Z,53.34
2023-03-06T16:29:28.842Z,53.09
2023-03-06T16:31:58.993Z,53.13
2023-03-06T16:34:27.598Z,53.22
2023-03-06T16:36:55.408Z,53.01
2023-03-06T16:39:24.441Z,53.74
2023-03-06T16:41:53.054Z,53.97
2023-03-06T16:44:24.776Z,54.21
2023-03-06T16:46:53.375Z,55.86
2023-03-06T16:49:25.244Z,57.27
2023-03-06T16:51:54.103Z,58.20
2023-03-06T16:54:26.345Z,60.34
2023-03-06T16:56:55.311Z,62.92
2023-03-06T16:59:25.046Z,63.01
2023-03-06T17:01:54.557Z,63.10
2023-03-06T17:04:23.402Z,62.74
2023-03-06T17:06:53.003Z,64.54
2023-03-06T17:09:22.016Z,64.30
2023-03-06T17:11:50.613Z,63.60
2023-03-06T17:14:19.327Z,62.98
2023-03-06T17:16:48.009Z,61.23
2023-03-06T17:19:17.051Z,61.14
2023-03-06T17:21:45.828Z,62.22
2023-03-06T17:24:15.418Z,62.04
2023-03-06T17:26:45.532Z,62.84
2023-03-06T17:29:14.997Z,63.82
2023-03-06T17:31:43.733Z,64.28
2023-03-06T17:34:12.531Z,64.48
2023-03-06T17:36:41.166Z,62.89
2023-03-06T17:39:08.553Z,63.57
2023-03-06T17:41:37.479Z,66.22
2023-03-06T17:44:06.058Z,67.37
2023-03-06T17:46:34.997Z,67.49
2023-03-06T17:49:03.898Z,66.38
2023-03-06T17:51:32.609Z,66.72
2023-03-06T17:54:01.350Z,67.41
2023-03-06T17:56:30.634Z,66.01
2023-03-06T17:59:00.318Z,67.39
2023-03-06T18:01:30.887Z,67.18
2023-03-06T18:04:02.390Z,66.74
2023-03-06T18:06:33.703Z,66.72
2023-03-06T18:09:03.318Z,66.59
2023-03-06T18:11:33.054Z,65.95
2023-03-06T18:14:05.681Z,65.13
2023-03-06T18:16:36.453Z,65.83
2023-03-06T18:19:05.225Z,67.42
2023-03-06T18:21:34.836Z,68.46
2023-03-06T18:24:04.605Z,68.55
2023-03-06T18:26:33.591Z,69.90
2023-03-06T18:29:04.687Z,69.50
2023-03-06T18:31:35.878Z,70.17
2023-03-06T18:34:11.416Z,70.43
2023-03-06T18:36:42.480Z,69.93
2023-03-06T18:39:13.120Z,70.10
2023-03-06T18:41:42.343Z,70.00
2023-03-06T18:44:16.585Z,68.84
2023-03-06T18:46:45.482Z,67.91
2023-03-06T18:49:16.314Z,67.10
2023-03-06T18:51:48.742Z,66.97
2023-03-06T18:54:18.448Z,66.56
2023-03-06T18:56:47.382Z,66.33
2023-03-06T18:59:18.644Z,66.94
2023-03-06T19:01:48.473Z,66.56
2023-03-06T19:04:18.164Z,66.23
2023-03-06T19:06:50.783Z,66.16
2023-03-06T19:09:19.595Z,65.56
2023-03-06T19:11:49.444Z,66.32
2023-03-06T19:14:19.148Z,65.12
2023-03-06T19:16:48.755Z,66.24
2023-03-06T19:19:18.744Z,66.83
2023-03-06T19:21:48.549Z,68.01
2023-03-06T19:24:18.245Z,68.67
2023-03-06T19:26:47.351Z,70.67
2023-03-06T19:29:16.508Z,72.90
2023-03-06T19:31:46.161Z,75.07
2023-03-06T19:34:15.783Z,75.46
2023-03-06T19:36:45.499Z,75.85
2023-03-06T19:41:59.333Z,76.70
2023-03-06T19:44:28.157Z,78.94
2023-03-06T19:46:58.939Z,78.85
2023-03-06T19:49:29.289Z,81.03
2023-03-06T19:54:39.287Z,80.17
2023-03-06T19:57:06.376Z,79.54
2023-03-06T19:59:34.649Z,78.95
2023-03-06T20:02:03.529Z,78.21
2023-03-06T20:04:33.140Z,78.38
2023-03-06T20:07:01.049Z,77.28
2023-03-06T20:09:29.403Z,77.30
2023-03-06T20:11:56.567Z,78.53
2023-03-06T20:14:24.472Z,77.85
2023-03-06T20:16:52.427Z,77.46
2023-03-06T20:19:22.233Z,77.94
2023-03-06T20:21:50.358Z,77.73
2023-03-06T20:24:19.081Z,77.24
2023-03-06T20:26:49.566Z,76.56
2023-03-06T20:29:18.208Z,76.42
2023-03-06T20:31:48.326Z,76.45
2023-03-06T20:34:17.375Z,76.22
2023-03-06T20:36:45.249Z,75.82
2023-03-06T20:39:15.606Z,76.85
2023-03-06T20:41:44.268Z,78.86
2023-03-06T20:44:20.708Z,80.09
2023-03-06T20:46:47.859Z,80.93
2023-03-06T20:49:15.162Z,81.71
2023-03-06T20:51:42.366Z,81.82
2023-03-06T20:54:14.021Z,81.49
2023-03-06T20:56:43.167Z,80.97
2023-03-06T20:59:13.181Z,80.42
2023-03-06T21:01:43.741Z,79.56
2023-03-06T21:04:13.929Z,80.70
2023-03-06T21:06:45.716Z,81.25
2023-03-06T21:09:16.537Z,80.92
2023-03-06T21:11:44.105Z,79.90
2023-03-06T21:14:12.478Z,78.88
2023-03-06T21:16:39.498Z,77.33
2023-03-06T21:19:09.378Z,76.64
2023-03-06T21:21:37.271Z,76.65
2023-03-06T21:24:06.155Z,76.15
2023-03-06T21:26:34.214Z,74.84
2023-03-06T21:29:03.972Z,74.49
2023-03-06T21:31:33.700Z,73.63
2023-03-06T21:34:04.577Z,73.59
2023-03-06T21:36:37.898Z,73.49
2023-03-06T21:39:08.806Z,73.68
2023-03-06T21:41:38.450Z,73.47
2023-03-06T21:44:07.113Z,73.29
2023-03-06T21:46:35.152Z,74.13
2023-03-06T21:49:05.138Z,74.21
2023-03-06T21:51:34.085Z,73.84
2023-03-06T21:54:03.172Z,73.33
2023-03-06T21:56:33.157Z,72.76
2023-03-06T21:59:01.634Z,71.86
2023-03-06T22:01:29.242Z,71.86
2023-03-06T22:03:59.076Z,71.30
2023-03-06T22:06:27.795Z,71.44
2023-03-06T22:08:56.582Z,71.28
2023-03-06T22:11:26.088Z,71.02
2023-03-06T22:13:53.530Z,73.84
2023-03-06T22:16:21.159Z,79.91
2023-03-06T22:18:51.246Z,80.44
2023-03-06T22:21:22.079Z,81.70
2023-03-06T22:23:54.519Z,82.06
2023-03-06T22:26:22.669Z,80.26
2023-03-06T22:28:50.282Z,79.89
2023-03-06T22:31:21.137Z,80.25
2023-03-06T22:33:51.568Z,78.95
2023-03-06T22:36:20.714Z,78.71
2023-03-06T22:38:48.889Z,77.85
2023-03-06T22:41:17.679Z,76.96
2023-03-06T22:43:45.725Z,75.85
2023-03-06T22:46:15.994Z,75.07
2023-03-06T22:48:43.511Z,75.98
2023-03-06T22:51:16.749Z,76.65
2023-03-06T22:53:45.911Z,75.49
2023-03-06T22:56:16.686Z,75.31
2023-03-06T22:58:44.968Z,75.49
2023-03-06T23:01:16.352Z,74.57
2023-03-06T23:03:45.991Z,73.86
2023-03-06T23:06:25.039Z,73.36
2023-03-06T23:08:57.594Z,75.45
2023-03-06T23:11:25.958Z,74.55
2023-03-06T23:13:55.111Z,75.36
2023-03-06T23:16:23.331Z,75.79
2023-03-06T23:18:52.876Z,74.92
2023-03-06T23:21:22.877Z,73.91
2023-03-06T23:23:52.912Z,72.93
2023-03-06T23:26:23.916Z,75.07
2023-03-06T23:28:53.001Z,73.96
2023-03-06T23:31:28.720Z,73.23
2023-03-06T23:34:03.292Z,72.56
2023-03-06T23:36:31.586Z,72.29
2023-03-06T23:38:59.437Z,71.99
2023-03-06T23:41:28.956Z,71.67
2023-03-06T23:43:56.113Z,71.33
2023-03-06T23:46:24.041Z,72.02
2023-03-06T23:48:52.439Z,71.53
2023-03-06T23:51:21.578Z,71.40
2023-03-06T23:53:55.949Z,70.64
2023-03-06T23:56:25.302Z,70.50
2023-03-06T23:59:12.242Z,70.25
